Time;durP1;ratioP1;P1;durP2;ratioP2;P2;SDS_P1;SDS_P2;PMS_P1;PMS_P2;Temp;Humidity;BMP_temperature;BMP_pressure;BME280_temperature;BME280_humidity;BME280_pressure;Samples;Min_cycle;Max_cycle;Signal;HPM_P1;HPM_P2
2021/01/26 00:00:47;;;;;;;13.17;3.20;;;4.80;99.90;;;;;;5009511;28;20689;-67
2021/01/26 00:03:13;;;;;;;9.87;3.00;;;4.70;99.90;;;;;;5009423;28;20204;-69
2021/01/26 00:05:40;;;;;;;6.97;2.80;;;4.70;99.90;;;;;;5006579;28;20240;-64
2021/01/26 00:08:06;;;;;;;9.67;3.07;;;4.80;99.90;;;;;;5010855;28;20205;-64
2021/01/26 00:10:34;;;;;;;4.83;2.17;;;4.80;99.90;;;;;;5009826;28;20192;-70
2021/01/26 00:13:00;;;;;;;9.17;2.50;;;4.80;99.90;;;;;;5010537;28;20669;-66
2021/01/26 00:15:27;;;;;;;9.80;3.70;;;4.80;99.90;;;;;;5012788;28;20834;-62
2021/01/26 00:17:55;;;;;;;11.77;3.03;;;4.80;99.90;;;;;;5014380;28;20201;-67
2021/01/26 00:20:22;;;;;;;11.50;2.93;;;4.70;99.90;;;;;;5012101;28;20231;-63
2021/01/26 00:22:49;;;;;;;12.43;3.00;;;4.60;99.90;;;;;;5015753;28;20204;-61
2021/01/26 00:25:19;;;;;;;9.17;3.13;;;4.60;99.90;;;;;;5012064;28;20331;-66
2021/01/26 00:27:47;;;;;;;11.47;3.03;;;4.50;99.90;;;;;;5016264;28;20200;-62
2021/01/26 00:30:19;;;;;;;6.27;2.30;;;4.40;99.90;;;;;;5015755;28;20196;-64
2021/01/26 00:32:46;;;;;;;8.83;3.03;;;4.30;99.90;;;;;;5015989;28;20197;-65
2021/01/26 00:35:14;;;;;;;8.90;2.57;;;4.30;99.90;;;;;;5013926;28;20646;-63
2021/01/26 00:37:41;;;;;;;7.97;2.93;;;4.30;99.90;;;;;;5014075;28;20196;-70
2021/01/26 00:40:09;;;;;;;7.67;3.33;;;4.20;99.90;;;;;;5013174;28;20223;-65
2021/01/26 00:42:36;;;;;;;9.77;2.77;;;4.20;99.90;;;;;;5017521;28;20303;-63
2021/01/26 00:45:04;;;;;;;12.60;2.97;;;4.20;99.90;;;;;;5016088;28;20209;-61
2021/01/26 00:47:30;;;;;;;8.67;2.40;;;4.20;99.90;;;;;;5013365;28;20335;-65
2021/01/26 00:49:57;;;;;;;6.63;2.13;;;4.30;99.90;;;;;;5014005;28;20204;-65
2021/01/26 00:52:23;;;;;;;9.90;2.90;;;4.30;99.90;;;;;;5017981;28;20200;-70
2021/01/26 00:54:50;;;;;;;8.47;2.80;;;4.30;99.90;;;;;;5040372;28;20224;-63
2021/01/26 00:57:19;;;;;;;10.00;2.50;;;4.30;99.90;;;;;;5033454;28;20201;-65
2021/01/26 00:59:46;;;;;;;7.37;2.57;;;4.30;99.90;;;;;;5030905;28;20295;-63
2021/01/26 01:02:14;;;;;;;15.07;2.97;;;4.40;99.90;;;;;;5013565;28;20200;-66
2021/01/26 01:04:41;;;;;;;11.70;3.30;;;4.40;99.90;;;;;;5013752;28;20211;-63
2021/01/26 01:07:07;;;;;;;12.07;2.90;;;4.50;99.90;;;;;;5014206;28;20216;-62
2021/01/26 01:09:34;;;;;;;9.73;2.80;;;4.50;99.90;;;;;;5015741;28;20581;-62
2021/01/26 01:12:00;;;;;;;12.37;3.30;;;4.50;99.90;;;;;;5012167;28;20220;-67
2021/01/26 01:14:27;;;;;;;9.17;2.60;;;4.50;99.90;;;;;;5016033;28;20991;-68
2021/01/26 01:16:54;;;;;;;9.67;3.27;;;4.50;99.90;;;;;;5015020;28;20266;-65
2021/01/26 01:19:21;;;;;;;13.20;3.40;;;4.50;99.90;;;;;;5015194;28;20207;-66
2021/01/26 01:21:48;;;;;;;9.23;3.03;;;4.40;99.90;;;;;;5015006;28;20200;-69
2021/01/26 01:24:15;;;;;;;9.13;2.90;;;4.40;99.90;;;;;;5014691;28;20254;-69
2021/01/26 01:26:42;;;;;;;15.83;3.10;;;4.30;99.90;;;;;;5014598;28;20920;-69
2021/01/26 01:29:10;;;;;;;8.33;2.87;;;4.20;99.90;;;;;;5012255;28;20212;-70
2021/01/26 01:31:36;;;;;;;9.77;2.90;;;4.10;99.90;;;;;;5012714;28;20200;-62
2021/01/26 01:34:03;;;;;;;11.40;3.00;;;4.00;99.90;;;;;;5011944;28;20235;-69
2021/01/26 01:36:30;;;;;;;9.50;2.70;;;4.00;99.90;;;;;;5007584;28;20260;-68
2021/01/26 01:38:57;;;;;;;10.03;2.30;;;3.90;99.90;;;;;;5013450;28;20200;-68
2021/01/26 01:41:28;;;;;;;11.73;2.60;;;3.90;99.90;;;;;;5014588;28;20197;-69
2021/01/26 01:43:55;;;;;;;11.20;2.60;;;3.90;99.90;;;;;;5014607;28;20241;-65
2021/01/26 01:46:23;;;;;;;9.97;2.73;;;3.90;99.90;;;;;;5014752;28;20216;-68
2021/01/26 01:48:50;;;;;;;8.83;2.60;;;3.90;99.90;;;;;;5010169;28;20197;-67
2021/01/26 01:51:18;;;;;;;13.40;3.27;;;3.80;99.90;;;;;;5013766;28;20196;-69
2021/01/26 01:53:53;;;;;;;8.90;3.23;;;3.70;99.90;;;;;;5013125;28;20228;-69
2021/01/26 01:56:24;;;;;;;15.40;2.97;;;3.80;99.90;;;;;;5011229;28;20195;-62
2021/01/26 01:58:56;;;;;;;8.67;2.93;;;3.70;99.90;;;;;;5016097;28;20196;-68
2021/01/26 02:01:27;;;;;;;12.63;3.30;;;3.70;99.90;;;;;;5011874;28;20197;-69
2021/01/26 02:03:57;;;;;;;11.40;2.70;;;3.70;99.90;;;;;;5012767;28;20200;-69
2021/01/26 02:06:29;;;;;;;9.20;2.70;;;3.70;99.90;;;;;;5013505;28;20485;-63
2021/01/26 02:09:00;;;;;;;8.97;2.60;;;3.70;99.90;;;;;;5014218;28;20246;-66
2021/01/26 02:11:27;;;;;;;11.20;2.80;;;3.70;99.90;;;;;;5014603;28;20260;-69
2021/01/26 02:13:53;;;;;;;11.23;2.93;;;3.70;99.90;;;;;;5009784;28;20239;-70
2021/01/26 02:16:31;;;;;;;14.10;3.30;;;3.60;99.90;;;;;;5013301;28;20271;-67
2021/01/26 02:19:17;;;;;;;8.90;3.00;;;3.60;99.90;;;;;;5013255;28;20258;-68
2021/01/26 02:22:24;;;;;;;11.37;2.37;;;3.70;99.90;;;;;;5013051;28;20250;-68
2021/01/26 02:25:44;;;;;;;12.93;2.60;;;3.70;99.90;;;;;;5015290;28;20577;-66
2021/01/26 02:28:39;;;;;;;10.27;2.87;;;3.70;99.90;;;;;;5013120;28;20192;-66
2021/01/26 02:31:39;;;;;;;7.07;2.67;;;3.70;99.90;;;;;;5012868;28;20207;-66
2021/01/26 02:34:47;;;;;;;11.20;2.30;;;3.80;99.90;;;;;;5008821;28;20249;-67
2021/01/26 02:37:47;;;;;;;9.37;2.40;;;3.80;99.90;;;;;;4978521;28;20200;-62
2021/01/26 02:40:21;;;;;;;12.37;2.87;;;3.80;99.90;;;;;;5010441;28;20209;-68
2021/01/26 02:43:07;;;;;;;7.03;2.20;;;3.90;99.90;;;;;;5011580;28;20193;-66
2021/01/26 02:45:38;;;;;;;15.73;3.13;;;3.90;99.90;;;;;;5012692;28;20204;-66
2021/01/26 02:48:34;;;;;;;7.27;2.60;;;3.80;99.90;;;;;;5011491;28;20200;-68
2021/01/26 02:51:06;;;;;;;13.27;3.00;;;3.80;99.90;;;;;;5015621;28;20205;-65
2021/01/26 02:53:39;;;;;;;9.47;3.13;;;3.70;99.90;;;;;;5019230;28;20209;-65
2021/01/26 02:56:22;;;;;;;9.27;2.30;;;3.70;99.90;;;;;;5017438;28;20677;-61
2021/01/26 02:58:56;;;;;;;7.27;2.57;;;3.60;99.90;;;;;;5020396;28;20196;-69
2021/01/26 03:01:28;;;;;;;9.50;2.80;;;3.60;99.90;;;;;;5018764;28;20199;-64
2021/01/26 03:04:00;;;;;;;10.93;2.40;;;3.60;99.90;;;;;;5017061;28;20207;-65
2021/01/26 03:06:29;;;;;;;9.73;2.80;;;3.50;99.90;;;;;;5013703;28;20658;-71
2021/01/26 03:09:01;;;;;;;7.03;3.07;;;3.50;99.90;;;;;;5015472;28;20205;-64
2021/01/26 03:11:32;;;;;;;9.97;3.00;;;3.50;99.90;;;;;;5018131;28;20201;-64
2021/01/26 03:14:03;;;;;;;12.57;2.83;;;3.50;99.90;;;;;;5016600;28;20229;-61
2021/01/26 03:16:32;;;;;;;6.37;2.20;;;3.50;99.90;;;;;;5020963;28;20228;-71
2021/01/26 03:19:06;;;;;;;8.10;2.73;;;3.50;99.90;;;;;;5016590;28;20200;-64
2021/01/26 03:21:34;;;;;;;11.73;4.27;;;3.40;99.90;;;;;;5019837;28;20192;-61
2021/01/26 03:24:07;;;;;;;10.20;2.83;;;3.40;99.90;;;;;;5014228;28;20203;-61
2021/01/26 03:26:36;;;;;;;10.57;3.00;;;3.40;99.90;;;;;;5016063;28;22131;-70
2021/01/26 03:29:06;;;;;;;9.63;2.53;;;3.30;99.90;;;;;;5014372;28;20224;-66
2021/01/26 03:31:37;;;;;;;12.57;2.87;;;3.40;99.90;;;;;;5015240;28;20193;-64
2021/01/26 03:34:03;;;;;;;9.60;2.70;;;3.40;99.90;;;;;;5016319;28;20223;-67
2021/01/26 03:36:30;;;;;;;7.03;2.67;;;3.40;99.90;;;;;;5017212;28;20208;-66
2021/01/26 03:38:58;;;;;;;7.13;2.03;;;3.40;99.90;;;;;;5016253;28;20196;-64
2021/01/26 03:41:25;;;;;;;6.33;1.93;;;3.40;99.90;;;;;;5014887;28;20228;-63
2021/01/26 03:43:52;;;;;;;9.80;2.27;;;3.40;99.90;;;;;;5014879;28;20197;-69
2021/01/26 03:46:53;;;;;;;7.87;2.83;;;3.40;99.90;;;;;;5016320;28;20215;-67
2021/01/26 03:49:34;;;;;;;13.23;3.20;;;3.40;99.90;;;;;;5004450;28;20200;-70
2021/01/26 03:52:15;;;;;;;7.30;2.20;;;3.40;99.90;;;;;;5013977;28;20192;-68
2021/01/26 03:54:45;;;;;;;5.87;2.50;;;3.40;99.90;;;;;;5016297;28;20306;-68
2021/01/26 03:57:44;;;;;;;9.53;2.57;;;3.30;99.90;;;;;;5020012;28;20200;-69
2021/01/26 04:00:24;;;;;;;8.27;2.40;;;3.30;99.90;;;;;;4977361;28;20659;-71
2021/01/26 04:03:04;;;;;;;5.97;2.63;;;3.30;99.90;;;;;;5015848;28;20228;-67
2021/01/26 04:05:38;;;;;;;9.33;2.43;;;3.20;99.90;;;;;;5014537;28;20287;-70
2021/01/26 04:08:13;;;;;;;6.73;2.50;;;3.10;99.90;;;;;;5015840;28;20192;-70
2021/01/26 04:10:52;;;;;;;4.57;2.00;;;3.10;99.90;;;;;;5013182;28;20200;-63
2021/01/26 04:13:24;;;;;;;5.57;2.53;;;3.10;99.90;;;;;;5013125;28;20890;-66
2021/01/26 04:15:57;;;;;;;11.90;2.67;;;3.00;99.90;;;;;;5015875;28;20313;-68
2021/01/26 04:18:28;;;;;;;11.83;2.60;;;3.00;99.90;;;;;;5013321;28;20560;-67
2021/01/26 04:20:57;;;;;;;9.80;2.33;;;3.00;99.90;;;;;;5014268;28;20936;-61
2021/01/26 04:23:25;;;;;;;8.47;2.50;;;3.00;99.90;;;;;;5009010;28;20197;-67
2021/01/26 04:25:52;;;;;;;7.97;2.37;;;3.00;99.90;;;;;;5011812;28;20930;-66
2021/01/26 04:28:37;;;;;;;7.30;3.00;;;3.00;99.90;;;;;;5013568;28;20208;-68
2021/01/26 04:31:06;;;;;;;8.40;2.43;;;3.00;99.90;;;;;;5020383;28;20201;-70
2021/01/26 04:33:33;;;;;;;8.43;1.97;;;3.00;99.90;;;;;;5023871;28;20224;-69
2021/01/26 04:35:59;;;;;;;8.27;2.33;;;3.10;99.90;;;;;;5025374;28;20208;-64
2021/01/26 04:38:26;;;;;;;6.97;2.40;;;3.10;99.90;;;;;;5015278;28;20858;-62
2021/01/26 04:40:55;;;;;;;14.00;2.47;;;3.10;99.90;;;;;;5019919;28;20200;-66
2021/01/26 04:43:30;;;;;;;9.27;2.53;;;3.10;99.90;;;;;;5019902;28;20208;-67
2021/01/26 04:46:08;;;;;;;7.30;2.40;;;3.10;99.90;;;;;;5018029;28;20760;-66
2021/01/26 04:48:42;;;;;;;9.33;2.60;;;3.00;99.90;;;;;;5017917;28;20207;-64
2021/01/26 04:51:17;;;;;;;12.17;2.57;;;3.00;99.90;;;;;;5017816;28;20200;-62
2021/01/26 04:54:05;;;;;;;9.10;2.13;;;2.90;99.90;;;;;;5011207;28;20222;-63
2021/01/26 04:56:40;;;;;;;6.70;2.10;;;2.80;99.90;;;;;;5008530;28;20231;-62
2021/01/26 04:59:15;;;;;;;9.17;2.10;;;2.80;99.90;;;;;;5011263;28;20287;-65
2021/01/26 05:02:18;;;;;;;5.97;2.17;;;2.80;99.90;;;;;;5009646;28;20277;-61
2021/01/26 05:04:48;;;;;;;8.70;2.23;;;2.80;99.90;;;;;;5011515;28;20205;-60
2021/01/26 05:07:19;;;;;;;9.83;2.30;;;2.80;99.90;;;;;;5010444;28;20226;-63
2021/01/26 05:09:53;;;;;;;8.73;2.23;;;2.80;99.90;;;;;;5010709;28;20254;-62
2021/01/26 05:12:22;;;;;;;8.37;3.03;;;2.90;99.90;;;;;;5005556;28;20211;-61
2021/01/26 05:14:54;;;;;;;8.73;2.90;;;2.90;99.90;;;;;;5005575;28;20716;-62
2021/01/26 05:17:30;;;;;;;12.10;2.50;;;2.80;99.90;;;;;;5006040;28;20262;-64
2021/01/26 05:20:02;;;;;;;8.27;2.90;;;2.80;99.90;;;;;;5008605;28;20200;-61
2021/01/26 05:22:35;;;;;;;11.33;3.30;;;2.70;99.90;;;;;;5010239;28;20250;-60
2021/01/26 05:25:05;;;;;;;5.13;2.23;;;2.70;99.90;;;;;;5007624;28;22538;-61
2021/01/26 05:27:32;;;;;;;4.50;2.20;;;2.60;99.90;;;;;;5009312;28;20209;-63
2021/01/26 05:29:59;;;;;;;7.63;1.90;;;2.60;99.90;;;;;;5016927;28;20212;-62
2021/01/26 05:32:29;;;;;;;9.20;2.53;;;2.60;99.90;;;;;;5011492;28;20706;-66
2021/01/26 05:34:56;;;;;;;14.37;3.07;;;2.60;99.90;;;;;;5008400;28;20233;-61
2021/01/26 05:37:24;;;;;;;9.20;2.77;;;2.60;99.90;;;;;;5007399;28;20212;-64
2021/01/26 05:39:55;;;;;;;10.77;2.40;;;2.60;99.90;;;;;;5007258;28;20204;-62
2021/01/26 05:42:23;;;;;;;9.33;2.47;;;2.60;99.90;;;;;;5005848;28;20196;-62
2021/01/26 05:44:53;;;;;;;7.67;2.40;;;2.60;99.90;;;;;;5011365;28;20208;-64
2021/01/26 05:47:23;;;;;;;10.33;2.77;;;2.50;99.90;;;;;;5009627;28;20662;-62
2021/01/26 05:49:52;;;;;;;8.10;1.87;;;2.60;99.90;;;;;;5009595;28;20242;-66
2021/01/26 05:52:20;;;;;;;10.07;2.83;;;2.60;99.90;;;;;;5008908;28;20211;-64
2021/01/26 05:54:50;;;;;;;7.60;2.13;;;2.60;99.90;;;;;;5009109;28;20228;-64
2021/01/26 05:57:26;;;;;;;7.70;1.83;;;2.60;99.90;;;;;;5012986;28;20707;-66
2021/01/26 05:59:57;;;;;;;11.40;2.83;;;2.60;99.90;;;;;;5009030;28;20196;-70
2021/01/26 06:02:23;;;;;;;9.67;1.90;;;2.60;99.90;;;;;;5008587;28;20197;-65
2021/01/26 06:04:51;;;;;;;7.97;1.90;;;2.70;99.90;;;;;;5008058;28;20215;-63
2021/01/26 06:07:20;;;;;;;10.20;2.20;;;2.70;99.90;;;;;;5008801;28;20208;-62
2021/01/26 06:09:47;;;;;;;7.13;2.00;;;2.70;99.90;;;;;;5006977;28;20201;-68
2021/01/26 06:12:18;;;;;;;5.47;1.77;;;2.70;99.90;;;;;;5010858;28;20205;-68
2021/01/26 06:14:48;;;;;;;10.53;2.23;;;2.80;99.90;;;;;;5008214;28;20216;-70
2021/01/26 06:17:20;;;;;;;11.90;2.70;;;2.80;99.90;;;;;;5008833;28;20232;-67
2021/01/26 06:20:05;;;;;;;10.60;2.53;;;2.80;99.90;;;;;;5008887;28;20196;-65
2021/01/26 06:22:32;;;;;;;7.03;2.47;;;2.80;99.90;;;;;;5015016;28;20192;-71
2021/01/26 06:25:01;;;;;;;9.50;2.47;;;2.80;99.90;;;;;;5016650;28;20201;-69
2021/01/26 06:27:57;;;;;;;10.73;2.60;;;2.90;99.90;;;;;;5012916;28;20607;-65
2021/01/26 06:30:36;;;;;;;7.33;1.93;;;2.90;99.90;;;;;;5011236;28;20203;-69
2021/01/26 06:33:35;;;;;;;8.73;2.00;;;2.90;99.90;;;;;;5013525;28;20220;-66
2021/01/26 06:36:25;;;;;;;11.10;2.40;;;2.90;99.90;;;;;;5013072;28;20196;-63
2021/01/26 06:39:09;;;;;;;6.77;2.87;;;2.90;99.90;;;;;;5013334;28;22045;-66
2021/01/26 06:41:48;;;;;;;9.93;2.70;;;2.90;99.90;;;;;;5012097;28;20204;-66
2021/01/26 06:44:47;;;;;;;9.50;2.37;;;2.90;99.90;;;;;;5011020;28;20197;-68
2021/01/26 06:47:40;;;;;;;7.13;2.03;;;2.90;99.90;;;;;;4997377;28;20777;-66
2021/01/26 06:50:17;;;;;;;9.87;2.30;;;2.90;99.90;;;;;;5010741;28;20200;-67
2021/01/26 06:53:02;;;;;;;9.53;1.67;;;2.90;99.90;;;;;;5014673;28;20215;-67
2021/01/26 06:56:05;;;;;;;9.07;2.60;;;2.90;99.90;;;;;;5013235;28;20216;-71
2021/01/26 06:58:59;;;;;;;5.83;1.87;;;2.90;99.90;;;;;;5016606;28;20204;-71
2021/01/26 07:02:04;;;;;;;7.93;2.47;;;3.00;99.90;;;;;;5012719;28;20206;-68
2021/01/26 07:05:03;;;;;;;6.27;2.00;;;3.00;99.90;;;;;;5010766;28;20200;-62
2021/01/26 07:07:54;;;;;;;10.70;2.40;;;3.00;99.90;;;;;;5017873;28;20201;-70
2021/01/26 07:10:52;;;;;;;9.27;1.87;;;3.00;99.90;;;;;;5016470;28;20570;-61
2021/01/26 07:13:35;;;;;;;10.60;2.53;;;3.00;99.90;;;;;;5011871;28;20224;-69
2021/01/26 07:16:44;;;;;;;6.97;1.90;;;3.00;99.90;;;;;;5014865;28;20236;-68
2021/01/26 07:19:52;;;;;;;12.33;1.93;;;3.00;99.90;;;;;;5010800;28;20199;-70
2021/01/26 07:22:53;;;;;;;5.87;2.00;;;2.90;99.90;;;;;;5022572;28;20208;-66
2021/01/26 07:25:24;;;;;;;10.20;2.30;;;2.80;99.90;;;;;;5021259;28;20195;-62
2021/01/26 07:28:29;;;;;;;4.53;1.57;;;2.70;99.90;;;;;;5018951;28;20678;-66
2021/01/26 07:31:01;;;;;;;8.40;2.00;;;2.70;99.90;;;;;;5004004;28;20208;-65
2021/01/26 07:33:32;;;;;;;9.87;2.13;;;2.70;99.90;;;;;;5029119;28;20199;-68
2021/01/26 07:36:06;;;;;;;11.43;2.37;;;2.80;99.90;;;;;;5021855;28;20200;-64
2021/01/26 07:38:39;;;;;;;8.90;2.03;;;2.80;99.90;;;;;;5020548;28;20204;-66
2021/01/26 07:41:09;;;;;;;5.37;1.90;;;2.80;99.90;;;;;;5018809;28;20626;-66
2021/01/26 07:43:42;;;;;;;13.97;2.20;;;2.90;99.90;;;;;;5021024;28;20211;-63
2021/01/26 07:46:15;;;;;;;4.80;1.80;;;2.80;99.90;;;;;;5020960;28;20192;-62
2021/01/26 07:48:52;;;;;;;9.07;1.87;;;2.80;99.90;;;;;;5020898;28;20250;-63
2021/01/26 07:51:22;;;;;;;7.07;2.07;;;2.80;99.90;;;;;;5027251;28;20551;-63
2021/01/26 07:53:56;;;;;;;7.53;2.23;;;2.70;99.90;;;;;;5020776;28;20266;-65
2021/01/26 07:56:31;;;;;;;9.30;3.10;;;2.70;99.90;;;;;;5020202;28;20239;-64
2021/01/26 07:59:00;;;;;;;5.97;2.70;;;2.70;99.90;;;;;;5020789;28;20207;-66
2021/01/26 08:01:34;;;;;;;8.07;3.10;;;2.70;99.90;;;;;;5018880;28;20574;-62
2021/01/26 08:04:03;;;;;;;6.97;2.33;;;2.60;99.90;;;;;;5013406;28;20203;-62
2021/01/26 08:06:49;;;;;;;7.13;2.13;;;2.70;99.90;;;;;;5021668;28;20287;-69
2021/01/26 08:09:21;;;;;;;5.07;2.10;;;2.70;99.90;;;;;;5021980;28;20230;-61
2021/01/26 08:12:01;;;;;;;6.83;2.33;;;2.70;99.90;;;;;;5017348;28;20197;-64
2021/01/26 08:14:32;;;;;;;8.73;2.53;;;2.70;99.90;;;;;;5014362;28;20219;-65
2021/01/26 08:17:04;;;;;;;3.97;2.07;;;2.70;99.90;;;;;;5009242;28;21012;-61
2021/01/26 08:19:34;;;;;;;8.17;2.63;;;2.70;99.90;;;;;;5011497;28;20335;-61
2021/01/26 08:22:19;;;;;;;6.23;2.07;;;2.80;99.90;;;;;;5009992;28;20201;-68
2021/01/26 08:24:48;;;;;;;6.53;2.23;;;2.80;99.90;;;;;;5013922;28;20204;-61
2021/01/26 08:27:52;;;;;;;11.07;2.03;;;2.80;99.90;;;;;;5018675;28;20222;-64
2021/01/26 08:30:24;;;;;;;6.43;2.20;;;3.00;99.90;;;;;;5020072;28;20239;-66
2021/01/26 08:33:08;;;;;;;10.23;2.40;;;3.10;99.90;;;;;;5024604;28;20203;-63
2021/01/26 08:36:12;;;;;;;10.67;2.17;;;3.10;99.90;;;;;;5020513;28;20250;-66
2021/01/26 08:38:47;;;;;;;6.83;2.53;;;3.30;99.90;;;;;;5017998;28;20196;-70
2021/01/26 08:41:40;;;;;;;8.10;2.30;;;3.30;99.90;;;;;;5014106;28;20305;-68
2021/01/26 08:44:08;;;;;;;12.93;2.20;;;3.40;99.90;;;;;;5011101;28;20306;-61
2021/01/26 08:46:39;;;;;;;6.90;2.03;;;3.50;99.90;;;;;;5009406;28;20216;-65
2021/01/26 08:49:19;;;;;;;7.10;2.30;;;3.60;99.90;;;;;;5008130;28;20242;-62
2021/01/26 08:51:46;;;;;;;6.60;2.07;;;3.80;99.90;;;;;;5011661;28;20196;-69
2021/01/26 08:54:37;;;;;;;10.00;2.30;;;4.00;99.90;;;;;;5007521;28;20224;-61
2021/01/26 08:57:20;;;;;;;8.63;2.33;;;4.20;99.90;;;;;;5009258;28;20235;-63
2021/01/26 08:59:47;;;;;;;6.47;2.60;;;4.60;99.90;;;;;;5015746;28;20188;-70
2021/01/26 09:02:33;;;;;;;7.87;2.30;;;4.70;99.90;;;;;;5021383;28;20253;-64
2021/01/26 09:05:00;;;;;;;5.47;2.20;;;5.00;99.90;;;;;;5019975;28;20892;-64
2021/01/26 09:07:55;;;;;;;9.40;2.60;;;5.30;99.90;;;;;;5019722;28;20262;-63
2021/01/26 09:10:30;;;;;;;6.93;2.40;;;5.60;99.90;;;;;;4997153;28;20207;-68
2021/01/26 09:13:08;;;;;;;6.27;2.73;;;5.70;99.90;;;;;;5019790;28;20200;-70
2021/01/26 09:15:38;;;;;;;6.57;1.67;;;5.90;99.90;;;;;;5018598;28;20247;-69
2021/01/26 09:18:05;;;;;;;4.90;2.10;;;6.20;99.90;;;;;;5022313;28;20203;-69
2021/01/26 09:20:34;;;;;;;7.10;2.00;;;6.40;99.90;;;;;;5023738;28;20298;-71
2021/01/26 09:23:03;;;;;;;7.80;3.10;;;6.60;99.90;;;;;;5020600;28;20208;-70
2021/01/26 09:25:35;;;;;;;10.17;3.63;;;6.80;99.90;;;;;;5021577;28;20204;-69
2021/01/26 09:28:04;;;;;;;10.57;3.97;;;7.10;99.90;;;;;;5019300;28;20200;-64
2021/01/26 09:30:31;;;;;;;7.40;2.83;;;7.40;99.90;;;;;;5019527;28;20204;-66
2021/01/26 09:33:15;;;;;;;8.97;3.40;;;7.70;99.90;;;;;;5019099;28;20211;-76
2021/01/26 09:35:46;;;;;;;8.37;2.63;;;7.70;99.90;;;;;;5016018;28;20212;-67
2021/01/26 09:38:15;;;;;;;7.73;2.63;;;7.30;99.90;;;;;;5012855;28;20200;-69
2021/01/26 09:40:44;;;;;;;5.00;1.83;;;6.90;99.90;;;;;;5011516;28;20201;-63
2021/01/26 09:43:15;;;;;;;5.93;2.20;;;6.80;99.90;;;;;;5011572;28;20884;-70
2021/01/26 09:45:42;;;;;;;5.73;1.87;;;6.80;99.90;;;;;;5007697;28;20914;-68
2021/01/26 09:48:16;;;;;;;4.43;1.97;;;6.90;99.90;;;;;;5009681;28;20196;-63
2021/01/26 09:50:44;;;;;;;7.70;2.13;;;7.00;99.90;;;;;;5010757;28;20196;-65
2021/01/26 09:53:10;;;;;;;5.97;2.07;;;7.10;99.90;;;;;;5011367;28;20212;-69
2021/01/26 09:55:37;;;;;;;4.93;2.00;;;7.20;99.90;;;;;;5018717;28;20309;-69
2021/01/26 09:58:04;;;;;;;8.30;2.50;;;7.30;99.90;;;;;;5020346;28;20233;-63
2021/01/26 10:00:33;;;;;;;7.33;2.23;;;7.50;99.90;;;;;;5020223;28;20250;-66
2021/01/26 10:03:02;;;;;;;5.50;2.10;;;7.90;99.90;;;;;;5019435;28;20215;-62
2021/01/26 10:05:32;;;;;;;5.70;1.83;;;8.20;99.90;;;;;;5019338;28;20371;-61
2021/01/26 10:08:14;;;;;;;3.63;1.90;;;8.30;99.90;;;;;;5021025;28;20200;-61
2021/01/26 10:10:41;;;;;;;3.07;1.90;;;8.40;99.90;;;;;;5020597;28;20282;-67
2021/01/26 10:13:22;;;;;;;8.40;1.93;;;8.50;99.90;;;;;;5017258;28;20712;-63
2021/01/26 10:15:49;;;;;;;4.63;1.80;;;8.80;99.90;;;;;;5012615;28;20248;-71
2021/01/26 10:18:18;;;;;;;5.20;1.50;;;9.00;99.90;;;;;;5007105;28;20228;-73
2021/01/26 10:20:57;;;;;;;6.33;1.80;;;9.00;99.90;;;;;;5012008;28;20200;-70
2021/01/26 10:23:29;;;;;;;5.73;1.67;;;8.80;99.90;;;;;;5017097;28;20218;-72
2021/01/26 10:26:11;;;;;;;4.43;2.30;;;8.60;99.90;;;;;;5015694;28;20608;-71
2021/01/26 10:28:58;;;;;;;13.90;7.60;;;8.50;99.90;;;;;;5019273;28;20196;-70
2021/01/26 10:31:24;;;;;;;10.83;3.37;;;8.20;99.90;;;;;;5018668;28;20676;-71
2021/01/26 10:33:51;;;;;;;4.10;2.20;;;8.20;99.90;;;;;;5012769;28;20200;-71
2021/01/26 10:36:30;;;;;;;5.10;1.50;;;8.50;99.90;;;;;;5006395;28;20215;-71
2021/01/26 10:38:59;;;;;;;3.30;1.50;;;8.40;99.90;;;;;;5004265;28;20464;-66
2021/01/26 10:41:30;;;;;;;6.60;1.80;;;8.10;99.90;;;;;;5010627;28;20215;-68
2021/01/26 10:44:06;;;;;;;3.57;1.23;;;7.80;99.90;;;;;;5003687;28;20204;-70
2021/01/26 10:46:35;;;;;;;5.23;1.90;;;7.80;99.90;;;;;;5006304;28;20255;-68
2021/01/26 10:49:15;;;;;;;4.80;1.60;;;8.10;99.90;;;;;;5008513;28;20204;-73
2021/01/26 10:51:43;;;;;;;2.93;1.30;;;8.40;99.90;;;;;;5010306;28;20409;-70
2021/01/26 10:54:11;;;;;;;2.93;1.00;;;8.60;99.90;;;;;;5009970;28;20228;-62
2021/01/26 10:56:38;;;;;;;3.17;1.30;;;8.60;99.90;;;;;;5015976;28;20205;-63
2021/01/26 10:59:05;;;;;;;3.67;1.10;;;8.50;99.90;;;;;;5017488;28;20557;-61
2021/01/26 11:01:32;;;;;;;3.13;1.20;;;8.30;99.90;;;;;;5018778;28;20200;-61
2021/01/26 11:03:59;;;;;;;5.03;1.20;;;8.20;99.90;;;;;;5016594;28;20215;-69
2021/01/26 11:06:26;;;;;;;1.40;1.03;;;8.20;99.90;;;;;;5017111;28;20269;-62
2021/01/26 11:08:53;;;;;;;2.17;1.10;;;8.10;99.90;;;;;;5016620;28;20201;-66
2021/01/26 11:11:24;;;;;;;4.00;1.10;;;8.00;99.90;;;;;;5025320;28;20208;-69
2021/01/26 11:13:50;;;;;;;5.33;1.27;;;8.10;99.90;;;;;;5025832;28;20200;-63
2021/01/26 11:16:17;;;;;;;5.27;1.30;;;8.20;99.90;;;;;;5024121;28;20645;-69
2021/01/26 11:18:44;;;;;;;3.43;1.00;;;8.20;99.90;;;;;;5019183;28;20302;-63
2021/01/26 11:21:11;;;;;;;2.67;1.40;;;8.20;99.90;;;;;;5020521;28;20211;-66
2021/01/26 11:23:38;;;;;;;3.20;1.03;;;8.00;99.90;;;;;;5021846;28;20208;-62
2021/01/26 11:26:05;;;;;;;1.57;1.10;;;7.80;99.90;;;;;;5026198;28;20204;-69
2021/01/26 11:28:33;;;;;;;6.20;1.83;;;7.80;99.90;;;;;;5019590;28;20211;-67
2021/01/26 11:31:00;;;;;;;6.27;1.40;;;7.90;99.90;;;;;;5022122;28;20209;-61
2021/01/26 11:33:27;;;;;;;1.63;0.97;;;7.80;99.90;;;;;;5021044;28;22703;-62
2021/01/26 11:35:53;;;;;;;1.70;1.07;;;7.70;99.90;;;;;;5019819;28;20251;-62
2021/01/26 11:38:20;;;;;;;2.60;0.93;;;7.70;99.90;;;;;;5020909;28;20199;-72
2021/01/26 11:40:47;;;;;;;3.80;1.20;;;7.80;99.90;;;;;;5019490;28;20219;-65
2021/01/26 11:43:14;;;;;;;3.37;0.90;;;7.80;99.90;;;;;;5017714;28;20223;-64
2021/01/26 11:45:42;;;;;;;2.73;1.17;;;7.80;99.90;;;;;;5018813;28;20204;-65
2021/01/26 11:48:10;;;;;;;1.83;0.90;;;7.80;99.90;;;;;;5021665;28;20204;-69
2021/01/26 11:50:36;;;;;;;2.30;1.07;;;7.90;99.90;;;;;;5019712;28;20197;-70
2021/01/26 11:53:05;;;;;;;2.30;1.13;;;8.10;99.90;;;;;;5017997;28;20204;-72
2021/01/26 11:55:33;;;;;;;4.77;1.80;;;8.10;99.90;;;;;;5018098;28;20232;-73
2021/01/26 11:58:00;;;;;;;1.40;0.83;;;8.20;99.90;;;;;;5018202;28;20204;-65
2021/01/26 12:00:28;;;;;;;1.13;1.03;;;8.20;99.90;;;;;;5019020;28;20204;-67
2021/01/26 12:02:56;;;;;;;3.13;1.33;;;8.20;99.90;;;;;;5019894;28;20665;-66
2021/01/26 12:05:26;;;;;;;3.80;1.33;;;8.50;99.90;;;;;;5021345;28;20561;-68
2021/01/26 12:07:53;;;;;;;4.80;1.30;;;8.80;99.90;;;;;;5025868;28;20216;-63
2021/01/26 12:10:20;;;;;;;7.17;1.30;;;9.10;99.90;;;;;;5021095;28;20200;-62
2021/01/26 12:12:46;;;;;;;2.80;1.10;;;9.30;99.90;;;;;;5020413;28;20227;-67
2021/01/26 12:15:17;;;;;;;4.63;1.27;;;9.30;99.90;;;;;;5017175;28;20309;-64
2021/01/26 12:17:43;;;;;;;2.70;1.37;;;9.50;99.90;;;;;;5017336;28;20212;-65
2021/01/26 12:20:12;;;;;;;3.83;1.37;;;9.90;99.90;;;;;;5026000;28;20215;-62
2021/01/26 12:22:39;;;;;;;1.47;1.27;;;10.10;99.90;;;;;;5026503;28;20213;-68
2021/01/26 12:25:08;;;;;;;4.03;1.60;;;10.10;99.90;;;;;;5023443;28;20562;-66
2021/01/26 12:27:34;;;;;;;3.40;1.60;;;10.30;99.90;;;;;;5025143;28;20225;-64
2021/01/26 12:30:01;;;;;;;2.57;1.50;;;10.30;99.90;;;;;;5025768;28;20251;-66
2021/01/26 12:32:28;;;;;;;3.50;1.30;;;10.60;99.90;;;;;;5028184;28;20553;-71
2021/01/26 12:34:54;;;;;;;3.03;1.37;;;11.00;99.90;;;;;;5029386;28;20228;-63
2021/01/26 12:37:22;;;;;;;2.97;1.17;;;11.80;99.90;;;;;;5027195;28;20196;-72
2021/01/26 12:39:48;;;;;;;1.43;1.23;;;12.40;99.90;;;;;;5023574;28;20214;-64
2021/01/26 12:42:15;;;;;;;2.97;1.43;;;12.80;99.90;;;;;;5020389;28;20222;-64
2021/01/26 12:44:41;;;;;;;2.83;1.30;;;12.60;99.90;;;;;;5016236;28;20586;-63
2021/01/26 12:47:07;;;;;;;4.37;1.33;;;12.50;99.90;;;;;;5016279;28;20203;-67
2021/01/26 12:49:34;;;;;;;4.13;1.50;;;12.70;99.90;;;;;;5017743;28;20197;-67
2021/01/26 12:52:00;;;;;;;2.37;1.40;;;12.90;99.90;;;;;;5017937;28;20203;-71
2021/01/26 12:54:28;;;;;;;2.70;1.70;;;13.20;99.90;;;;;;5016747;28;20228;-69
2021/01/26 12:56:54;;;;;;;2.00;1.60;;;13.40;99.90;;;;;;5017338;28;20255;-63
2021/01/26 12:59:21;;;;;;;3.67;1.30;;;13.30;99.90;;;;;;5017492;28;20215;-66
2021/01/26 13:01:47;;;;;;;5.70;2.17;;;12.90;99.90;;;;;;5016973;28;20208;-68
2021/01/26 13:04:14;;;;;;;3.57;1.47;;;12.90;99.90;;;;;;5017093;28;20211;-64
2021/01/26 13:06:41;;;;;;;4.33;1.60;;;12.30;99.90;;;;;;5017526;28;20320;-70
2021/01/26 13:09:08;;;;;;;3.40;1.73;;;11.40;99.90;;;;;;5017565;28;20204;-63
2021/01/26 13:11:36;;;;;;;4.80;2.23;;;10.70;99.90;;;;;;5016688;28;20204;-63
2021/01/26 13:14:03;;;;;;;7.57;2.57;;;10.00;99.90;;;;;;5006042;28;20210;-66
2021/01/26 13:16:29;;;;;;;4.90;2.40;;;9.80;99.90;;;;;;5008435;28;20240;-61
2021/01/26 13:18:56;;;;;;;8.27;2.63;;;9.70;99.90;;;;;;5009205;28;21149;-62
2021/01/26 13:21:23;;;;;;;4.40;2.70;;;9.30;99.90;;;;;;5009791;28;20200;-62
2021/01/26 13:23:49;;;;;;;7.03;3.73;;;9.20;99.90;;;;;;5014151;28;20208;-62